KMIW/MIW METAR and TAF weather

Enter ICAO airport designator
Station Type Date Time Source
KMIW METAR 2020/01/27 10:53 UTC NOAA

KMIW 271053Z AUTO 04003KT 1SM BR OVC002 M02/M02 A2993 RMK AO2 SLP148 I1000 T10221022 $


Station Type Date Time Source
KMIW Decoded METAR 2020/01/27 10:53 UTC NOAA

MARSHALLTOWN MUNICIPAL AIRPORT , IA, United States (KMIW) 42-07N 92-55W 296M
Jan 27, 2020 - 05:53 AM EST / 2020.01.27 1053 UTC
Wind: from the NE (040 degrees) at 3 MPH (3 KT):0
Visibility: 1 mile(s):0
Sky conditions: overcast
Weather: mist
Temperature: 28.0 F (-2.2 C)
Dew Point: 28.0 F (-2.2 C)
Relative Humidity: 100%
Pressure (altimeter): 29.93 in. Hg (1013 hPa)
ob: KMIW 271053Z AUTO 04003KT 1SM BR OVC002 M02/M02 A2993 RMK AO2 SLP148 I1000 T10221022
cycle: 11

Station Type Date Time Source
KMIW TAF UTC NOAA

Error!

Example: see airport list